Terminal Aerodrome Forecast
Issued by NWS Louisville, KY

Home | Current Version | Previous Version | Text Only | Print | Product List | Glossary On
Versions: 1 2 3 4 5 6 7 8 9 10 11 12 13 14 15 16
812
FTUS43 KLMK 201124
TAFBWG
TAF
KBWG 201124Z 2012/2112 22008KT P6SM BKN015
     FM201500 21010KT P6SM BKN025
     FM201800 20008KT P6SM BKN035
     FM210400 18006KT P6SM BKN050
     FM210800 19004KT 4SM BR SCT015 BKN050=

USA.gov is the U.S. government's official web portal to all federal, state and local government web resources and services.